Airfield :
LOGIN :

Register | Disclaimer

   EN    FR    IT 

 










Legend :    VFR   Marginal VFR   IFR   Intensive IFR   Very Intensive IFR
Visi :
Ceiling :
>= 8 km
>= 3000ft
5 to 8 km
1000 to 3000 ft
1500m to 5 km
500 to 1000 ft
800 to 1500m
200 to 500 ft
< 800m
< 200 ft
Symbols :   Thunderstorms  Fog  Heavy snow  Heavy precipitations  Wind > 20 kt
SIGMETs :     Misc.  Thunderstorms  Icing  Turbulence  Mountain Waves  Volcanic Ashes






- Airport Elevation : 124 ft
- IATA code : NHT


EGWU - RAF Northolt

CURRENT METAR :
  • 182250Z AUTO 00000KT 9999 FEW150/// 18/13 Q1019

EXPIRED METARs :
  • 182220Z AUTO 15004KT 9999 BKN150/// 19/13 Q1019
  • 182150Z 16003KT CAVOK 20/13 Q1019 NOSIG RMK BLU BLU
  • 182120Z 18003KT CAVOK 21/13 Q1019 NOSIG RMK BLU BLU
  • 182050Z 19004KT CAVOK 22/13 Q1019 NOSIG
  • 182020Z 19005KT CAVOK 23/13 Q1019 NOSIG RMK BLU BLU
  • 181950Z 19004KT CAVOK 23/13 Q1019 NOSIG RMK BLU BLU
  • 181920Z 19006KT CAVOK 24/13 Q1019 NOSIG RMK BLU BLU
  • 181850Z 18008KT CAVOK 25/13 Q1019 NOSIG RMK BLU BLU
  • 181820Z 19005KT CAVOK 26/14 Q1019 NOSIG RMK BLU BLU

TAF TAF EGWU
Valid from the 18 at 21:00 until the 19 at 15:00 UTC


181935Z 1821/1915 18006KT CAVOK



MET'MAP, your aeronautical weather chart ! - Copyright ORBIFLY December 2007 - Disclaimer

ORBIFLY MET'MAP TEAM :

Programming & Development : Alexandra Zaïnal
Original concept : Baudouin d'Aumeries
Technical & hardware support : Manuel Goepfert
Assistance : Marc-Olivier Méhu




SOURCES & CREDITS :

   NOAA